createdAt,value
2023-03-08T00:00:17.275Z,99670.38
2023-03-08T00:02:44.847Z,99666.72
2023-03-08T00:05:12.136Z,99673.44
2023-03-08T00:07:39.412Z,99668.09
2023-03-08T00:10:07.083Z,99680.22
2023-03-08T00:12:34.377Z,99682.16
2023-03-08T00:15:01.638Z,99672.06
2023-03-08T00:17:28.920Z,99676.00
2023-03-08T00:19:57.276Z,99682.22
2023-03-08T00:22:24.525Z,99688.09
2023-03-08T00:24:53.397Z,99671.81
2023-03-08T00:27:20.678Z,99661.97
2023-03-08T00:29:47.921Z,99644.09
2023-03-08T00:32:17.015Z,99651.09
2023-03-08T00:34:46.954Z,99657.56
2023-03-08T00:37:14.277Z,99659.81
2023-03-08T00:39:41.711Z,99674.59
2023-03-08T00:42:09.092Z,99685.72
2023-03-08T00:44:36.404Z,99672.25
2023-03-08T00:47:06.534Z,99670.94
2023-03-08T00:49:33.841Z,99659.50
2023-03-08T00:52:01.198Z,99663.47
2023-03-08T00:54:30.069Z,99659.78
2023-03-08T00:56:57.532Z,99655.66
2023-03-08T00:59:25.043Z,99651.22
2023-03-08T01:01:52.462Z,99661.00
2023-03-08T01:04:19.901Z,99661.66
2023-03-08T01:06:47.224Z,99657.69
2023-03-08T01:09:14.552Z,99662.38
2023-03-08T01:11:41.927Z,99665.00
2023-03-08T01:14:09.338Z,99669.84
2023-03-08T01:16:37.170Z,99675.06
2023-03-08T01:19:05.325Z,99663.19
2023-03-08T01:21:32.804Z,99660.13
2023-03-08T01:24:00.546Z,99659.53
2023-03-08T01:26:29.101Z,99667.88
2023-03-08T01:28:57.448Z,99663.69
2023-03-08T01:31:31.438Z,99661.19
2023-03-08T01:34:00.409Z,99665.41
2023-03-08T01:36:28.789Z,99653.13
2023-03-08T01:39:01.370Z,99657.75
2023-03-08T01:41:30.744Z,99652.44
2023-03-08T01:43:58.553Z,99657.94
2023-03-08T01:46:27.700Z,99647.56
2023-03-08T01:49:18.151Z,99655.16
2023-03-08T01:51:45.475Z,99658.41
2023-03-08T01:54:20.396Z,99660.00
2023-03-08T01:56:51.935Z,99663.34
2023-03-08T01:59:22.055Z,99664.28
2023-03-08T02:01:49.808Z,99667.78
2023-03-08T02:04:17.905Z,99675.13
2023-03-08T02:06:46.723Z,99670.03
2023-03-08T02:09:20.105Z,99671.28
2023-03-08T02:11:48.602Z,99676.56
2023-03-08T02:14:16.002Z,99685.06
2023-03-08T02:16:46.263Z,99680.03
2023-03-08T02:19:32.268Z,99670.63
2023-03-08T02:22:06.987Z,99671.09
2023-03-08T02:24:34.303Z,99674.53
2023-03-08T02:27:14.763Z,99678.03
2023-03-08T02:29:42.094Z,99668.34
2023-03-08T02:32:09.799Z,99664.31
2023-03-08T02:34:37.269Z,99671.91
2023-03-08T02:37:04.609Z,99670.38
2023-03-08T02:39:32.216Z,99669.28
2023-03-08T02:41:59.872Z,99668.16
2023-03-08T02:44:27.179Z,99663.19
2023-03-08T02:46:54.630Z,99654.25
2023-03-08T02:49:22.008Z,99659.78
2023-03-08T02:51:49.305Z,99650.44
2023-03-08T02:54:17.106Z,99652.41
2023-03-08T02:56:46.861Z,99648.47
2023-03-08T02:59:14.956Z,99650.69
2023-03-08T03:01:44.716Z,99654.03
2023-03-08T03:04:12.094Z,99651.06
2023-03-08T03:06:39.440Z,99641.47
2023-03-08T03:09:09.333Z,99645.09
2023-03-08T03:11:37.370Z,99645.72
2023-03-08T03:14:04.712Z,99647.69
2023-03-08T03:16:37.505Z,99663.50
2023-03-08T03:19:04.913Z,99661.38
2023-03-08T03:21:32.645Z,99665.59
2023-03-08T03:24:00.123Z,99655.09
2023-03-08T03:26:35.131Z,99669.09
2023-03-08T03:29:02.506Z,99676.22
2023-03-08T03:31:34.303Z,99678.03
2023-03-08T03:34:02.225Z,99675.50
2023-03-08T03:36:29.636Z,99685.19
2023-03-08T03:38:58.317Z,99686.59
2023-03-08T03:41:26.012Z,99693.59
2023-03-08T03:44:02.050Z,99696.69
2023-03-08T03:46:30.307Z,99693.81
2023-03-08T03:49:01.780Z,99694.63
2023-03-08T03:51:34.801Z,99702.41
2023-03-08T03:54:25.949Z,99701.59
2023-03-08T03:56:59.685Z,99685.81
2023-03-08T03:59:31.074Z,99697.16
2023-03-08T04:01:58.436Z,99701.78
2023-03-08T04:04:36.311Z,99709.25
2023-03-08T04:07:05.890Z,99705.28
2023-03-08T04:09:39.156Z,99703.56
2023-03-08T04:12:10.946Z,99705.94
2023-03-08T04:14:40.384Z,99709.91
2023-03-08T04:17:09.054Z,99726.13
2023-03-08T04:19:44.288Z,99729.94
2023-03-08T04:22:13.655Z,99733.44
2023-03-08T04:24:47.626Z,99730.44
2023-03-08T04:27:20.499Z,99736.63
2023-03-08T04:29:47.822Z,99740.59
2023-03-08T04:32:15.709Z,99738.69
2023-03-08T04:34:48.468Z,99751.88
2023-03-08T04:37:20.225Z,99756.63
2023-03-08T04:39:51.936Z,99757.13
2023-03-08T04:42:19.860Z,99752.34
2023-03-08T04:44:48.234Z,99745.50
2023-03-08T04:47:19.721Z,99743.16
2023-03-08T04:49:47.085Z,99744.56
2023-03-08T04:52:14.415Z,99753.00
2023-03-08T04:54:43.082Z,99751.72
2023-03-08T04:57:21.109Z,99756.00
2023-03-08T04:59:53.202Z,99751.38
2023-03-08T05:02:23.047Z,99765.72
2023-03-08T05:04:51.147Z,99765.41
2023-03-08T05:07:18.684Z,99761.59
2023-03-08T05:09:47.143Z,99762.88
2023-03-08T05:12:14.600Z,99762.53
2023-03-08T05:14:55.102Z,99769.84
2023-03-08T05:17:25.048Z,99762.50
2023-03-08T05:19:52.573Z,99757.31
2023-03-08T05:22:23.967Z,99758.91
2023-03-08T05:24:55.445Z,99757.63
2023-03-08T05:27:22.696Z,99758.56
2023-03-08T05:29:52.284Z,99764.31
2023-03-08T05:32:19.729Z,99755.53
2023-03-08T05:34:47.885Z,99760.47
2023-03-08T05:37:27.373Z,99753.50
2023-03-08T05:39:55.654Z,99746.63
2023-03-08T05:42:23.659Z,99753.63
2023-03-08T05:44:51.061Z,99751.72
2023-03-08T05:47:23.733Z,99751.41
2023-03-08T05:49:51.629Z,99758.09
2023-03-08T05:52:19.679Z,99756.97
2023-03-08T05:54:47.321Z,99753.81
2023-03-08T05:57:18.934Z,99765.41
2023-03-08T05:59:46.956Z,99764.00
2023-03-08T06:02:17.232Z,99768.59
2023-03-08T06:04:50.258Z,99764.16
2023-03-08T06:07:20.859Z,99766.66
2023-03-08T06:09:53.478Z,99769.03
2023-03-08T06:12:20.818Z,99763.34
2023-03-08T06:14:52.599Z,99775.25
2023-03-08T06:17:22.805Z,99771.44
2023-03-08T06:19:52.195Z,99775.59
2023-03-08T06:22:20.088Z,99770.47
2023-03-08T06:24:49.860Z,99778.81
2023-03-08T06:27:22.855Z,99785.41
2023-03-08T06:29:52.719Z,99785.88
2023-03-08T06:32:21.791Z,99801.78
2023-03-08T06:34:49.405Z,99797.91
2023-03-08T06:37:17.273Z,99793.63
2023-03-08T06:39:44.911Z,99808.13
2023-03-08T06:42:12.574Z,99819.13
2023-03-08T06:44:40.311Z,99815.66
2023-03-08T06:47:07.695Z,99821.16
2023-03-08T06:49:35.150Z,99816.25
2023-03-08T06:52:02.531Z,99816.44
2023-03-08T06:54:30.122Z,99819.06
2023-03-08T06:56:58.570Z,99819.63
2023-03-08T06:59:25.877Z,99824.06
2023-03-08T07:01:53.240Z,99830.84
2023-03-08T07:04:20.993Z,99844.66
2023-03-08T07:06:48.419Z,99846.63
2023-03-08T07:09:15.730Z,99854.22
2023-03-08T07:11:43.438Z,99851.03
2023-03-08T07:14:10.741Z,99857.00
2023-03-08T07:16:38.100Z,99866.44
2023-03-08T07:19:05.426Z,99871.59
2023-03-08T07:21:32.801Z,99861.00
2023-03-08T07:24:00.172Z,99863.66
2023-03-08T07:26:27.492Z,99859.19
2023-03-08T07:28:55.864Z,99868.50
2023-03-08T07:31:23.243Z,99878.38
2023-03-08T07:33:50.528Z,99877.81
2023-03-08T07:36:17.915Z,99878.44
2023-03-08T07:38:46.822Z,99875.47
2023-03-08T07:41:14.152Z,99880.31
2023-03-08T07:43:41.545Z,99875.88
2023-03-08T07:46:18.291Z,99888.34
2023-03-08T07:48:45.625Z,99885.31
2023-03-08T07:51:13.297Z,99877.13
2023-03-08T07:53:40.659Z,99868.56
2023-03-08T07:56:08.324Z,99866.41
2023-03-08T07:58:35.655Z,99871.72
2023-03-08T08:01:09.349Z,99861.81
2023-03-08T08:03:37.848Z,99860.25
2023-03-08T08:06:06.859Z,99869.50
2023-03-08T08:08:34.746Z,99870.31
2023-03-08T08:11:10.429Z,99871.88
2023-03-08T08:13:37.692Z,99888.38
2023-03-08T08:16:07.172Z,99889.84
2023-03-08T08:18:35.685Z,99890.91
2023-03-08T08:21:08.628Z,99903.34
2023-03-08T08:23:36.783Z,99922.47
2023-03-08T08:26:08.746Z,99923.03
2023-03-08T08:28:36.706Z,99921.34
2023-03-08T08:31:10.349Z,99919.19
2023-03-08T08:33:38.051Z,99921.94
2023-03-08T08:36:08.451Z,99917.13
2023-03-08T08:38:35.816Z,99924.06
2023-03-08T08:41:05.574Z,99930.97
2023-03-08T08:43:35.378Z,99923.66
2023-03-08T08:46:06.414Z,99922.38
2023-03-08T08:48:34.217Z,99914.59
2023-03-08T08:51:01.761Z,99913.34
2023-03-08T08:53:29.062Z,99918.34
2023-03-08T08:55:57.719Z,99907.81
2023-03-08T08:58:25.744Z,99899.28
2023-03-08T09:00:53.160Z,99903.88
2023-03-08T09:03:20.571Z,99895.75
2023-03-08T09:05:47.887Z,99895.47
2023-03-08T09:08:15.610Z,99900.19
2023-03-08T09:10:42.955Z,99894.69
2023-03-08T09:13:10.965Z,99893.75
2023-03-08T09:15:38.273Z,99891.38
2023-03-08T09:18:05.857Z,99894.50
2023-03-08T09:20:34.306Z,99899.31
2023-03-08T09:23:01.662Z,99909.91
2023-03-08T09:25:29.020Z,99913.13
2023-03-08T09:27:56.307Z,99918.63
2023-03-08T09:30:23.690Z,99920.44
2023-03-08T09:32:51.149Z,99923.47
2023-03-08T09:35:18.559Z,99918.28
2023-03-08T09:37:45.974Z,99920.19
2023-03-08T09:40:23.700Z,99919.78
2023-03-08T09:42:51.286Z,99918.69
2023-03-08T09:45:25.216Z,99935.06
2023-03-08T09:48:10.987Z,99939.00
2023-03-08T09:50:49.256Z,99936.84
2023-03-08T09:53:24.606Z,99948.16
2023-03-08T09:55:57.276Z,99944.44
2023-03-08T09:59:08.255Z,99946.72
2023-03-08T10:01:55.570Z,99938.75
2023-03-08T10:04:32.516Z,99935.72
2023-03-08T10:07:06.900Z,99935.59
2023-03-08T10:09:41.638Z,99935.56
2023-03-08T10:12:26.678Z,99937.22
2023-03-08T10:15:00.697Z,99932.44
2023-03-08T10:17:44.431Z,99933.88
2023-03-08T10:20:28.240Z,99938.03
2023-03-08T10:23:12.491Z,99933.06
2023-03-08T10:25:40.294Z,99937.53
2023-03-08T10:28:26.488Z,99935.69
2023-03-08T10:31:00.958Z,99928.66
2023-03-08T10:33:36.314Z,99926.69
2023-03-08T10:36:09.614Z,99922.59
2023-03-08T10:38:37.510Z,99926.78
2023-03-08T10:41:10.534Z,99920.16
2023-03-08T10:43:46.878Z,99914.19
2023-03-08T10:46:24.197Z,99901.03
2023-03-08T10:48:52.100Z,99906.03
2023-03-08T10:51:27.635Z,99909.19
2023-03-08T10:54:00.228Z,99899.66
2023-03-08T10:56:32.509Z,99902.16
2023-03-08T10:59:01.322Z,99893.41
2023-03-08T11:01:31.318Z,99885.81
2023-03-08T11:04:05.989Z,99891.16
2023-03-08T11:06:37.249Z,99884.09
2023-03-08T11:09:25.875Z,99876.88
2023-03-08T11:11:54.435Z,99887.44
2023-03-08T11:14:21.953Z,99888.88
2023-03-08T11:17:04.798Z,99888.19
2023-03-08T11:19:47.206Z,99884.72
2023-03-08T11:22:30.983Z,99856.16
2023-03-08T11:25:10.489Z,99849.72
2023-03-08T11:27:57.732Z,99833.44
2023-03-08T11:30:37.377Z,99836.50
2023-03-08T11:33:07.556Z,99829.72
2023-03-08T11:35:41.535Z,99826.38
2023-03-08T11:38:31.615Z,99833.06
2023-03-08T11:41:16.291Z,99856.31
2023-03-08T11:44:02.274Z,99842.16
2023-03-08T11:47:00.534Z,99845.22
2023-03-08T11:49:46.674Z,99826.41
2023-03-08T11:52:32.721Z,99820.25
2023-03-08T11:55:37.000Z,99823.06
2023-03-08T11:58:20.939Z,99832.44
2023-03-08T12:00:51.905Z,99836.00
2023-03-08T12:03:26.598Z,99848.31
2023-03-08T12:05:59.161Z,99846.97
2023-03-08T12:08:35.888Z,99845.97
2023-03-08T12:11:09.232Z,99848.16
2023-03-08T12:13:44.686Z,99842.38
2023-03-08T12:16:41.041Z,99840.88
2023-03-08T12:19:44.348Z,99823.03
2023-03-08T12:22:17.843Z,99838.34
2023-03-08T12:25:05.084Z,99841.47
2023-03-08T12:27:40.383Z,99860.75
2023-03-08T12:30:10.429Z,99867.84
2023-03-08T12:32:39.674Z,99867.56
2023-03-08T12:35:29.291Z,99858.88
2023-03-08T12:38:26.887Z,99854.88
2023-03-08T12:40:55.744Z,99854.16
2023-03-08T12:43:23.037Z,99851.84
2023-03-08T12:45:59.567Z,99858.53
2023-03-08T12:48:35.498Z,99851.84
2023-03-08T12:51:21.981Z,99852.66
2023-03-08T12:53:53.197Z,99860.47
2023-03-08T12:56:34.447Z,99847.31
2023-03-08T12:59:22.929Z,99830.19
2023-03-08T13:01:59.125Z,99830.38
2023-03-08T13:04:41.510Z,99803.78
2023-03-08T13:07:30.057Z,99800.13
2023-03-08T13:10:35.858Z,99796.22
2023-03-08T13:13:37.022Z,99791.03
2023-03-08T13:16:15.797Z,99776.31
2023-03-08T13:18:45.988Z,99777.50
2023-03-08T13:21:28.743Z,99775.34
2023-03-08T13:24:09.378Z,99780.72
2023-03-08T13:26:50.379Z,99774.75
2023-03-08T13:29:20.350Z,99780.44
2023-03-08T13:31:48.644Z,99774.69
2023-03-08T13:34:33.202Z,99761.44
2023-03-08T13:37:01.660Z,99764.75
2023-03-08T13:39:32.656Z,99762.44
2023-03-08T13:42:08.267Z,99763.88
2023-03-08T13:44:35.562Z,99760.69
2023-03-08T13:47:20.681Z,99752.53
2023-03-08T13:49:51.804Z,99765.00
2023-03-08T13:52:24.000Z,99767.25
2023-03-08T13:54:58.972Z,99764.22
2023-03-08T13:57:31.520Z,99760.50
2023-03-08T14:00:03.875Z,99755.38
2023-03-08T14:02:32.293Z,99760.50
2023-03-08T14:04:59.870Z,99760.19
2023-03-08T14:07:30.753Z,99766.06
2023-03-08T14:09:58.667Z,99757.44
2023-03-08T14:12:30.712Z,99766.81
2023-03-08T14:15:00.179Z,99755.41
2023-03-08T14:17:30.651Z,99758.63
2023-03-08T14:20:01.345Z,99752.28
2023-03-08T14:22:39.227Z,99755.84
2023-03-08T14:25:21.641Z,99762.56
2023-03-08T14:27:49.973Z,99761.38
2023-03-08T14:30:25.063Z,99760.19
2023-03-08T14:33:00.265Z,99766.84
2023-03-08T14:35:31.364Z,99773.50
2023-03-08T14:37:58.965Z,99780.56
2023-03-08T14:40:38.503Z,99779.69
2023-03-08T14:43:15.497Z,99788.66
2023-03-08T14:46:10.695Z,99805.38
2023-03-08T14:48:38.537Z,99804.13
2023-03-08T14:51:25.372Z,99800.56
2023-03-08T14:54:05.737Z,99805.34
2023-03-08T14:56:33.564Z,99807.25
2023-03-08T14:59:05.314Z,99812.72
2023-03-08T15:01:35.612Z,99819.03
2023-03-08T15:04:04.970Z,99818.69
2023-03-08T15:06:34.850Z,99811.56
2023-03-08T15:09:03.967Z,99812.22
2023-03-08T15:11:31.992Z,99815.22
2023-03-08T15:13:59.830Z,99802.28
2023-03-08T15:16:28.390Z,99798.72
2023-03-08T15:18:55.920Z,99799.56
2023-03-08T15:21:29.417Z,99798.34
2023-03-08T15:23:57.847Z,99778.38
2023-03-08T15:26:31.771Z,99776.34
2023-03-08T15:29:04.217Z,99774.84
2023-03-08T15:31:31.906Z,99781.47
2023-03-08T15:33:59.384Z,99775.16
2023-03-08T15:36:45.122Z,99783.78
2023-03-08T15:39:13.201Z,99776.56
2023-03-08T15:41:40.679Z,99782.88
2023-03-08T15:44:09.515Z,99786.88
2023-03-08T15:46:36.856Z,99792.31
2023-03-08T15:49:04.990Z,99779.75
2023-03-08T15:51:36.612Z,99775.09
2023-03-08T15:54:05.899Z,99766.84
2023-03-08T15:56:33.669Z,99759.84
2023-03-08T15:59:01.038Z,99767.28
2023-03-08T16:01:28.793Z,99764.81
2023-03-08T16:03:56.841Z,99763.16
2023-03-08T16:06:28.152Z,99768.34
2023-03-08T16:08:56.578Z,99765.94
2023-03-08T16:11:24.031Z,99772.16
2023-03-08T16:13:54.046Z,99775.69
2023-03-08T16:16:21.689Z,99778.56
2023-03-08T16:18:49.205Z,99777.34
2023-03-08T16:21:17.018Z,99784.00
2023-03-08T16:23:44.361Z,99785.75
2023-03-08T16:26:16.812Z,99783.59
2023-03-08T16:28:47.065Z,99780.31
2023-03-08T16:31:16.358Z,99767.81
2023-03-08T16:33:43.869Z,99766.50
2023-03-08T16:36:12.177Z,99770.38
2023-03-08T16:38:40.543Z,99787.19
2023-03-08T16:41:15.107Z,99778.06
2023-03-08T16:43:47.961Z,99786.06
2023-03-08T16:46:18.235Z,99786.34
2023-03-08T16:48:49.148Z,99786.97
2023-03-08T16:51:21.291Z,99781.91
2023-03-08T16:53:49.315Z,99778.25
2023-03-08T16:56:21.837Z,99775.03
2023-03-08T16:58:49.614Z,99778.16
2023-03-08T17:01:18.168Z,99782.09
2023-03-08T17:03:45.832Z,99770.47
2023-03-08T17:06:16.648Z,99762.13
2023-03-08T17:08:43.972Z,99772.53
2023-03-08T17:11:19.189Z,99754.94
2023-03-08T17:13:51.641Z,99763.91
2023-03-08T17:16:21.379Z,99766.22
2023-03-08T17:18:49.888Z,99772.41
2023-03-08T17:21:17.906Z,99767.72
2023-03-08T17:23:45.760Z,99763.09
2023-03-08T17:26:14.440Z,99777.38
2023-03-08T17:28:42.031Z,99786.53
2023-03-08T17:31:11.250Z,99776.69
2023-03-08T17:33:39.203Z,99772.31
2023-03-08T17:36:08.361Z,99775.38
2023-03-08T17:38:36.080Z,99783.09
2023-03-08T17:41:05.657Z,99795.38
2023-03-08T17:43:33.027Z,99786.84
2023-03-08T17:46:07.072Z,99787.16
2023-03-08T17:48:35.341Z,99809.28
2023-03-08T17:51:08.554Z,99825.28
2023-03-08T17:53:37.517Z,99828.81
2023-03-08T17:56:08.808Z,99829.88
2023-03-08T17:58:38.778Z,99823.59
2023-03-08T18:01:11.890Z,99819.63
2023-03-08T18:03:42.183Z,99814.47
2023-03-08T18:06:25.989Z,99818.84
2023-03-08T18:08:53.621Z,99828.13
2023-03-08T18:11:21.092Z,99829.13
2023-03-08T18:13:48.910Z,99842.59
2023-03-08T18:16:16.211Z,99853.84
2023-03-08T18:18:43.565Z,99860.97
2023-03-08T18:21:14.065Z,99860.78
2023-03-08T18:23:43.250Z,99856.59
2023-03-08T18:26:13.280Z,99848.75
2023-03-08T18:28:41.194Z,99854.38
2023-03-08T18:31:10.846Z,99855.34
2023-03-08T18:33:38.244Z,99856.28
2023-03-08T18:36:05.826Z,99853.31
2023-03-08T18:38:33.331Z,99855.34
2023-03-08T18:41:00.925Z,99856.91
2023-03-08T18:43:28.314Z,99857.44
2023-03-08T18:45:56.672Z,99855.25
2023-03-08T18:48:24.442Z,99862.13
2023-03-08T18:50:51.810Z,99849.84
2023-03-08T18:53:19.051Z,99851.13
2023-03-08T18:55:57.216Z,99848.13
2023-03-08T18:58:26.005Z,99853.63
2023-03-08T19:00:57.067Z,99861.03
2023-03-08T19:03:25.417Z,99858.75
2023-03-08T19:05:52.862Z,99862.63
2023-03-08T19:08:20.473Z,99859.91
2023-03-08T19:10:51.058Z,99855.88
2023-03-08T19:13:18.367Z,99850.84
2023-03-08T19:15:45.657Z,99853.19
2023-03-08T19:18:12.956Z,99850.06
2023-03-08T19:20:42.105Z,99848.88
2023-03-08T19:23:10.481Z,99860.72
2023-03-08T19:25:57.341Z,99850.78
2023-03-08T19:28:24.643Z,99840.19
2023-03-08T19:30:55.024Z,99840.53
2023-03-08T19:33:31.083Z,99833.75
2023-03-08T19:35:59.505Z,99839.91
2023-03-08T19:38:26.899Z,99846.88
2023-03-08T19:40:55.111Z,99855.22
2023-03-08T19:43:22.369Z,99839.41
2023-03-08T19:45:50.007Z,99834.28
2023-03-08T19:48:17.448Z,99826.53
2023-03-08T19:50:46.335Z,99828.78
2023-03-08T19:53:13.702Z,99832.78
2023-03-08T19:55:55.578Z,99841.34
2023-03-08T19:58:23.578Z,99827.25
2023-03-08T20:00:50.955Z,99841.69
2023-03-08T20:03:19.018Z,99842.06
2023-03-08T20:05:47.650Z,99849.91
2023-03-08T20:08:15.337Z,99856.50
2023-03-08T20:10:42.737Z,99853.28
2023-03-08T20:13:10.098Z,99850.13
2023-03-08T20:15:37.462Z,99859.97
2023-03-08T20:18:06.576Z,99864.00
2023-03-08T20:20:33.916Z,99854.03
2023-03-08T20:23:01.300Z,99852.88
2023-03-08T20:25:29.053Z,99860.34
2023-03-08T20:27:56.814Z,99856.47
2023-03-08T20:30:25.264Z,99863.88
2023-03-08T20:32:53.266Z,99867.41
2023-03-08T20:35:23.468Z,99867.69
2023-03-08T20:37:51.180Z,99868.31
2023-03-08T20:40:20.830Z,99859.97
2023-03-08T20:42:48.376Z,99868.59
2023-03-08T20:45:16.526Z,99865.06
2023-03-08T20:47:43.879Z,99856.50
2023-03-08T20:50:11.667Z,99855.72
2023-03-08T20:52:38.938Z,99868.47
2023-03-08T20:55:08.309Z,99861.72
2023-03-08T20:57:35.594Z,99858.75
2023-03-08T21:00:05.024Z,99865.75
2023-03-08T21:02:32.487Z,99855.59
2023-03-08T21:05:00.936Z,99852.78
2023-03-08T21:07:28.419Z,99858.53
2023-03-08T21:09:55.959Z,99859.63
2023-03-08T21:12:23.312Z,99855.66
2023-03-08T21:14:51.936Z,99852.19
2023-03-08T21:17:26.027Z,99858.34
2023-03-08T21:19:54.361Z,99849.75
2023-03-08T21:22:21.913Z,99846.97
2023-03-08T21:24:49.337Z,99839.91
2023-03-08T21:27:16.699Z,99838.53
2023-03-08T21:29:44.159Z,99835.69
2023-03-08T21:32:13.176Z,99829.84
2023-03-08T21:34:40.561Z,99834.81
2023-03-08T21:37:07.963Z,99820.50
2023-03-08T21:39:35.261Z,99827.19
2023-03-08T21:42:02.549Z,99829.50
2023-03-08T21:44:31.986Z,99820.66
2023-03-08T21:46:59.481Z,99823.31
2023-03-08T21:49:28.971Z,99828.34
2023-03-08T21:51:58.670Z,99828.78
2023-03-08T21:54:27.381Z,99829.50
2023-03-08T21:56:54.956Z,99823.97
2023-03-08T21:59:26.875Z,99819.22
2023-03-08T22:01:57.266Z,99814.63
2023-03-08T22:04:28.442Z,99807.66
2023-03-08T22:06:56.280Z,99803.69
2023-03-08T22:09:26.742Z,99809.94
2023-03-08T22:11:54.443Z,99799.44
2023-03-08T22:14:21.751Z,99797.50
2023-03-08T22:16:49.103Z,99797.31
2023-03-08T22:19:18.038Z,99799.94
2023-03-08T22:21:45.403Z,99803.69
2023-03-08T22:24:13.001Z,99806.91
2023-03-08T22:26:40.304Z,99797.50
2023-03-08T22:29:07.599Z,99799.78
2023-03-08T22:31:34.966Z,99799.38
2023-03-08T22:34:02.385Z,99800.53
2023-03-08T22:36:29.779Z,99796.94
2023-03-08T22:38:57.131Z,99791.84
2023-03-08T22:41:26.670Z,99797.22
2023-03-08T22:43:54.444Z,99799.00
2023-03-08T22:46:24.976Z,99794.38
2023-03-08T22:48:53.089Z,99799.78
2023-03-08T22:51:24.060Z,99795.72
2023-03-08T22:53:51.427Z,99787.16
2023-03-08T22:56:24.590Z,99781.97
2023-03-08T22:58:52.450Z,99780.44
2023-03-08T23:01:21.946Z,99790.28
2023-03-08T23:03:50.393Z,99787.66
2023-03-08T23:06:18.573Z,99788.34
2023-03-08T23:08:47.253Z,99775.56
2023-03-08T23:11:15.195Z,99777.09
2023-03-08T23:13:43.049Z,99768.16
2023-03-08T23:16:15.699Z,99765.78
2023-03-08T23:18:45.490Z,99769.81
2023-03-08T23:21:14.757Z,99775.78
2023-03-08T23:23:42.532Z,99772.13
2023-03-08T23:26:17.532Z,99769.00
2023-03-08T23:28:44.850Z,99770.25
2023-03-08T23:31:15.899Z,99770.97
2023-03-08T23:33:44.706Z,99760.44
2023-03-08T23:36:14.127Z,99765.00
2023-03-08T23:38:42.182Z,99758.31
2023-03-08T23:41:11.328Z,99771.53
2023-03-08T23:43:40.036Z,99755.44
2023-03-08T23:46:13.734Z,99765.66
2023-03-08T23:48:45.212Z,99768.81
2023-03-08T23:51:15.705Z,99772.41
2023-03-08T23:53:43.069Z,99775.94
2023-03-08T23:56:30.873Z,99770.38
2023-03-08T23:59:01.297Z,99769.31
